sensor_id;sensor_type;location;lat;lon;timestamp;P1;durP1;ratioP1;P2;durP2;ratioP2
55835;SDS011;66908;50.988;4.780;2023-02-18T00:01:21;25.70;;;15.55;;
55835;SDS011;66908;50.988;4.780;2023-02-18T00:03:48;25.70;;;16.13;;
55835;SDS011;66908;50.988;4.780;2023-02-18T00:06:16;29.42;;;16.27;;
55835;SDS011;66908;50.988;4.780;2023-02-18T00:08:47;25.42;;;15.32;;
55835;SDS011;66908;50.988;4.780;2023-02-18T00:11:14;26.92;;;14.70;;
55835;SDS011;66908;50.988;4.780;2023-02-18T00:13:41;23.70;;;14.75;;
55835;SDS011;66908;50.988;4.780;2023-02-18T00:16:09;27.50;;;14.32;;
55835;SDS011;66908;50.988;4.780;2023-02-18T00:18:37;23.98;;;13.95;;
55835;SDS011;66908;50.988;4.780;2023-02-18T00:21:04;24.15;;;13.80;;
55835;SDS011;66908;50.988;4.780;2023-02-18T00:23:31;22.75;;;13.05;;
55835;SDS011;66908;50.988;4.780;2023-02-18T00:26:07;24.33;;;14.00;;
55835;SDS011;66908;50.988;4.780;2023-02-18T00:28:36;23.38;;;12.90;;
55835;SDS011;66908;50.988;4.780;2023-02-18T00:31:08;21.77;;;11.95;;
55835;SDS011;66908;50.988;4.780;2023-02-18T00:33:36;21.13;;;11.98;;
55835;SDS011;66908;50.988;4.780;2023-02-18T00:36:03;23.67;;;12.10;;
55835;SDS011;66908;50.988;4.780;2023-02-18T00:38:31;21.52;;;12.23;;
55835;SDS011;66908;50.988;4.780;2023-02-18T00:40:57;25.08;;;13.00;;
55835;SDS011;66908;50.988;4.780;2023-02-18T00:43:24;18.25;;;12.23;;
55835;SDS011;66908;50.988;4.780;2023-02-18T00:45:50;22.60;;;12.98;;
55835;SDS011;66908;50.988;4.780;2023-02-18T00:48:16;18.88;;;11.50;;
55835;SDS011;66908;50.988;4.780;2023-02-18T00:50:43;16.77;;;10.57;;
55835;SDS011;66908;50.988;4.780;2023-02-18T00:53:10;18.23;;;11.23;;
55835;SDS011;66908;50.988;4.780;2023-02-18T00:55:39;22.73;;;11.60;;
55835;SDS011;66908;50.988;4.780;2023-02-18T00:58:06;16.83;;;10.52;;
55835;SDS011;66908;50.988;4.780;2023-02-18T01:00:32;15.35;;;10.48;;
55835;SDS011;66908;50.988;4.780;2023-02-18T01:02:58;21.73;;;10.70;;
55835;SDS011;66908;50.988;4.780;2023-02-18T01:05:24;17.08;;;10.43;;
55835;SDS011;66908;50.988;4.780;2023-02-18T01:07:50;18.02;;;9.55;;
55835;SDS011;66908;50.988;4.780;2023-02-18T01:10:16;19.63;;;10.45;;
55835;SDS011;66908;50.988;4.780;2023-02-18T01:12:42;18.65;;;10.07;;
55835;SDS011;66908;50.988;4.780;2023-02-18T01:15:08;21.38;;;9.85;;
55835;SDS011;66908;50.988;4.780;2023-02-18T01:17:35;17.73;;;9.80;;
55835;SDS011;66908;50.988;4.780;2023-02-18T01:20:01;15.98;;;9.05;;
55835;SDS011;66908;50.988;4.780;2023-02-18T01:22:27;13.80;;;8.57;;
55835;SDS011;66908;50.988;4.780;2023-02-18T01:24:53;12.40;;;8.15;;
55835;SDS011;66908;50.988;4.780;2023-02-18T01:27:19;13.65;;;7.65;;
55835;SDS011;66908;50.988;4.780;2023-02-18T01:29:45;12.05;;;8.15;;
55835;SDS011;66908;50.988;4.780;2023-02-18T01:32:11;14.88;;;7.70;;
55835;SDS011;66908;50.988;4.780;2023-02-18T01:34:37;12.43;;;7.50;;
55835;SDS011;66908;50.988;4.780;2023-02-18T01:37:02;10.43;;;6.53;;
55835;SDS011;66908;50.988;4.780;2023-02-18T01:39:28;12.20;;;6.65;;
55835;SDS011;66908;50.988;4.780;2023-02-18T01:41:54;10.07;;;6.65;;
55835;SDS011;66908;50.988;4.780;2023-02-18T01:44:21;10.02;;;6.07;;
55835;SDS011;66908;50.988;4.780;2023-02-18T01:46:50;9.32;;;6.00;;
55835;SDS011;66908;50.988;4.780;2023-02-18T01:49:21;8.48;;;5.57;;
55835;SDS011;66908;50.988;4.780;2023-02-18T01:51:55;8.82;;;5.45;;
55835;SDS011;66908;50.988;4.780;2023-02-18T01:57:27;7.38;;;4.95;;
55835;SDS011;66908;50.988;4.780;2023-02-18T02:00:03;6.40;;;4.60;;
55835;SDS011;66908;50.988;4.780;2023-02-18T02:02:36;7.38;;;4.20;;
55835;SDS011;66908;50.988;4.780;2023-02-18T02:05:06;4.75;;;3.63;;
55835;SDS011;66908;50.988;4.780;2023-02-18T02:07:33;4.85;;;3.47;;
55835;SDS011;66908;50.988;4.780;2023-02-18T02:09:59;5.95;;;3.88;;
55835;SDS011;66908;50.988;4.780;2023-02-18T02:20:27;5.00;;;3.40;;
55835;SDS011;66908;50.988;4.780;2023-02-18T02:37:19;3.60;;;3.25;;
55835;SDS011;66908;50.988;4.780;2023-02-18T02:42:52;4.60;;;3.88;;
55835;SDS011;66908;50.988;4.780;2023-02-18T02:48:21;4.35;;;3.65;;
55835;SDS011;66908;50.988;4.780;2023-02-18T02:51:06;4.43;;;3.42;;
55835;SDS011;66908;50.988;4.780;2023-02-18T02:53:39;4.72;;;3.88;;
55835;SDS011;66908;50.988;4.780;2023-02-18T02:56:08;3.75;;;3.35;;
55835;SDS011;66908;50.988;4.780;2023-02-18T02:58:42;4.07;;;3.67;;
55835;SDS011;66908;50.988;4.780;2023-02-18T03:01:17;3.90;;;3.58;;
55835;SDS011;66908;50.988;4.780;2023-02-18T03:04:03;4.35;;;3.28;;
55835;SDS011;66908;50.988;4.780;2023-02-18T03:15:37;4.50;;;2.80;;
55835;SDS011;66908;50.988;4.780;2023-02-18T03:18:13;3.42;;;3.00;;
55835;SDS011;66908;50.988;4.780;2023-02-18T03:21:07;2.67;;;2.45;;
55835;SDS011;66908;50.988;4.780;2023-02-18T03:24:08;2.60;;;2.40;;
55835;SDS011;66908;50.988;4.780;2023-02-18T03:26:55;3.40;;;2.38;;
55835;SDS011;66908;50.988;4.780;2023-02-18T03:29:25;2.65;;;2.35;;
55835;SDS011;66908;50.988;4.780;2023-02-18T03:31:54;3.00;;;2.70;;
55835;SDS011;66908;50.988;4.780;2023-02-18T03:34:30;3.00;;;2.80;;
55835;SDS011;66908;50.988;4.780;2023-02-18T03:37:01;3.73;;;2.83;;
55835;SDS011;66908;50.988;4.780;2023-02-18T03:39:28;3.22;;;2.92;;
55835;SDS011;66908;50.988;4.780;2023-02-18T03:41:56;2.45;;;2.25;;
55835;SDS011;66908;50.988;4.780;2023-02-18T03:44:23;2.30;;;2.17;;
55835;SDS011;66908;50.988;4.780;2023-02-18T03:46:49;2.80;;;2.47;;
55835;SDS011;66908;50.988;4.780;2023-02-18T03:49:15;3.38;;;3.08;;
55835;SDS011;66908;50.988;4.780;2023-02-18T03:51:41;3.92;;;2.67;;
55835;SDS011;66908;50.988;4.780;2023-02-18T03:54:08;2.50;;;2.30;;
55835;SDS011;66908;50.988;4.780;2023-02-18T03:56:34;2.60;;;2.40;;
55835;SDS011;66908;50.988;4.780;2023-02-18T03:59:01;2.97;;;2.58;;
55835;SDS011;66908;50.988;4.780;2023-02-18T04:01:28;2.28;;;2.15;;
55835;SDS011;66908;50.988;4.780;2023-02-18T04:03:54;2.47;;;2.25;;
55835;SDS011;66908;50.988;4.780;2023-02-18T04:06:20;4.22;;;2.97;;
55835;SDS011;66908;50.988;4.780;2023-02-18T04:08:47;2.60;;;2.40;;
55835;SDS011;66908;50.988;4.780;2023-02-18T04:11:13;2.50;;;2.30;;
55835;SDS011;66908;50.988;4.780;2023-02-18T04:13:39;2.95;;;2.53;;
55835;SDS011;66908;50.988;4.780;2023-02-18T04:16:05;2.63;;;2.42;;
55835;SDS011;66908;50.988;4.780;2023-02-18T04:18:31;3.30;;;2.55;;
55835;SDS011;66908;50.988;4.780;2023-02-18T04:20:57;2.90;;;2.67;;
55835;SDS011;66908;50.988;4.780;2023-02-18T04:23:24;2.67;;;2.47;;
55835;SDS011;66908;50.988;4.780;2023-02-18T04:25:50;3.25;;;3.00;;
55835;SDS011;66908;50.988;4.780;2023-02-18T04:28:16;2.92;;;2.72;;
55835;SDS011;66908;50.988;4.780;2023-02-18T04:30:45;3.22;;;2.45;;
55835;SDS011;66908;50.988;4.780;2023-02-18T04:33:12;2.80;;;2.50;;
55835;SDS011;66908;50.988;4.780;2023-02-18T04:35:38;2.75;;;2.55;;
55835;SDS011;66908;50.988;4.780;2023-02-18T04:38:07;2.83;;;2.63;;
55835;SDS011;66908;50.988;4.780;2023-02-18T04:40:34;3.30;;;2.58;;
55835;SDS011;66908;50.988;4.780;2023-02-18T04:43:00;2.70;;;2.50;;
55835;SDS011;66908;50.988;4.780;2023-02-18T04:45:27;2.73;;;2.40;;
55835;SDS011;66908;50.988;4.780;2023-02-18T04:47:54;3.05;;;2.72;;
55835;SDS011;66908;50.988;4.780;2023-02-18T04:50:20;3.17;;;2.88;;
55835;SDS011;66908;50.988;4.780;2023-02-18T04:52:47;2.83;;;2.60;;
55835;SDS011;66908;50.988;4.780;2023-02-18T04:55:13;2.90;;;2.70;;
55835;SDS011;66908;50.988;4.780;2023-02-18T04:57:39;4.57;;;3.05;;
55835;SDS011;66908;50.988;4.780;2023-02-18T05:00:06;3.42;;;2.90;;
55835;SDS011;66908;50.988;4.780;2023-02-18T05:02:33;2.78;;;2.58;;
55835;SDS011;66908;50.988;4.780;2023-02-18T05:04:59;3.13;;;2.83;;
55835;SDS011;66908;50.988;4.780;2023-02-18T05:07:25;2.80;;;2.60;;
55835;SDS011;66908;50.988;4.780;2023-02-18T05:09:51;3.47;;;3.17;;
55835;SDS011;66908;50.988;4.780;2023-02-18T05:12:18;2.77;;;2.57;;
55835;SDS011;66908;50.988;4.780;2023-02-18T05:14:44;2.42;;;2.22;;
55835;SDS011;66908;50.988;4.780;2023-02-18T05:17:10;2.60;;;2.40;;
55835;SDS011;66908;50.988;4.780;2023-02-18T05:19:35;3.17;;;2.70;;
55835;SDS011;66908;50.988;4.780;2023-02-18T05:22:01;3.92;;;2.90;;
55835;SDS011;66908;50.988;4.780;2023-02-18T05:24:27;5.22;;;3.60;;
55835;SDS011;66908;50.988;4.780;2023-02-18T05:26:53;2.80;;;2.60;;
55835;SDS011;66908;50.988;4.780;2023-02-18T05:29:19;3.13;;;2.83;;
55835;SDS011;66908;50.988;4.780;2023-02-18T05:31:45;4.57;;;2.85;;
55835;SDS011;66908;50.988;4.780;2023-02-18T05:34:11;3.67;;;2.75;;
55835;SDS011;66908;50.988;4.780;2023-02-18T05:36:37;4.38;;;3.20;;
55835;SDS011;66908;50.988;4.780;2023-02-18T05:39:03;3.15;;;2.83;;
55835;SDS011;66908;50.988;4.780;2023-02-18T05:41:29;2.90;;;2.70;;
55835;SDS011;66908;50.988;4.780;2023-02-18T05:43:55;5.13;;;2.75;;
55835;SDS011;66908;50.988;4.780;2023-02-18T05:46:39;2.38;;;2.22;;
55835;SDS011;66908;50.988;4.780;2023-02-18T05:49:05;2.78;;;2.00;;
55835;SDS011;66908;50.988;4.780;2023-02-18T05:51:31;2.40;;;2.20;;
55835;SDS011;66908;50.988;4.780;2023-02-18T05:53:56;2.42;;;1.75;;
55835;SDS011;66908;50.988;4.780;2023-02-18T05:56:22;2.40;;;2.20;;
55835;SDS011;66908;50.988;4.780;2023-02-18T05:58:48;2.47;;;2.20;;
55835;SDS011;66908;50.988;4.780;2023-02-18T06:01:14;4.07;;;2.35;;
55835;SDS011;66908;50.988;4.780;2023-02-18T06:03:40;2.97;;;2.35;;
55835;SDS011;66908;50.988;4.780;2023-02-18T06:06:06;5.95;;;2.90;;
55835;SDS011;66908;50.988;4.780;2023-02-18T06:08:33;4.35;;;2.72;;
55835;SDS011;66908;50.988;4.780;2023-02-18T06:10:59;7.32;;;2.97;;
55835;SDS011;66908;50.988;4.780;2023-02-18T06:13:25;6.13;;;2.70;;
55835;SDS011;66908;50.988;4.780;2023-02-18T06:15:51;4.15;;;2.75;;
55835;SDS011;66908;50.988;4.780;2023-02-18T06:18:18;4.50;;;2.60;;
55835;SDS011;66908;50.988;4.780;2023-02-18T06:20:45;10.20;;;3.47;;
55835;SDS011;66908;50.988;4.780;2023-02-18T06:25:37;8.40;;;3.15;;
55835;SDS011;66908;50.988;4.780;2023-02-18T06:28:03;4.72;;;2.90;;
55835;SDS011;66908;50.988;4.780;2023-02-18T06:30:29;4.93;;;2.53;;
55835;SDS011;66908;50.988;4.780;2023-02-18T06:32:55;10.65;;;3.15;;
55835;SDS011;66908;50.988;4.780;2023-02-18T06:35:21;3.67;;;2.75;;
55835;SDS011;66908;50.988;4.780;2023-02-18T06:37:47;7.72;;;3.88;;
55835;SDS011;66908;50.988;4.780;2023-02-18T06:40:13;9.77;;;3.10;;
55835;SDS011;66908;50.988;4.780;2023-02-18T06:42:39;11.88;;;2.50;;
55835;SDS011;66908;50.988;4.780;2023-02-18T06:45:05;10.05;;;3.00;;
55835;SDS011;66908;50.988;4.780;2023-02-18T06:47:32;8.27;;;3.15;;
55835;SDS011;66908;50.988;4.780;2023-02-18T06:49:58;7.40;;;3.03;;
55835;SDS011;66908;50.988;4.780;2023-02-18T06:52:24;9.52;;;3.30;;
55835;SDS011;66908;50.988;4.780;2023-02-18T06:54:50;13.38;;;3.13;;
55835;SDS011;66908;50.988;4.780;2023-02-18T06:57:16;8.82;;;3.55;;
55835;SDS011;66908;50.988;4.780;2023-02-18T06:59:42;11.88;;;3.17;;
55835;SDS011;66908;50.988;4.780;2023-02-18T07:02:09;8.80;;;3.08;;
55835;SDS011;66908;50.988;4.780;2023-02-18T07:04:38;9.65;;;3.30;;
55835;SDS011;66908;50.988;4.780;2023-02-18T07:07:04;15.32;;;3.90;;
55835;SDS011;66908;50.988;4.780;2023-02-18T07:09:30;13.13;;;3.95;;
55835;SDS011;66908;50.988;4.780;2023-02-18T07:11:56;7.75;;;3.42;;
55835;SDS011;66908;50.988;4.780;2023-02-18T07:14:22;17.08;;;4.50;;
55835;SDS011;66908;50.988;4.780;2023-02-18T07:16:49;10.63;;;3.53;;
55835;SDS011;66908;50.988;4.780;2023-02-18T07:19:15;10.27;;;4.05;;
55835;SDS011;66908;50.988;4.780;2023-02-18T07:21:41;9.35;;;2.90;;
55835;SDS011;66908;50.988;4.780;2023-02-18T07:24:07;11.68;;;3.92;;
55835;SDS011;66908;50.988;4.780;2023-02-18T07:26:33;10.70;;;3.05;;
55835;SDS011;66908;50.988;4.780;2023-02-18T07:28:59;11.18;;;3.40;;
55835;SDS011;66908;50.988;4.780;2023-02-18T07:31:25;13.63;;;4.05;;
55835;SDS011;66908;50.988;4.780;2023-02-18T07:33:51;9.18;;;4.15;;
55835;SDS011;66908;50.988;4.780;2023-02-18T07:36:16;8.27;;;3.60;;
55835;SDS011;66908;50.988;4.780;2023-02-18T07:38:42;7.88;;;3.53;;
55835;SDS011;66908;50.988;4.780;2023-02-18T07:41:14;8.68;;;3.72;;
55835;SDS011;66908;50.988;4.780;2023-02-18T07:43:43;9.88;;;3.85;;
55835;SDS011;66908;50.988;4.780;2023-02-18T07:46:09;9.73;;;3.90;;
55835;SDS011;66908;50.988;4.780;2023-02-18T07:48:34;9.07;;;3.90;;
55835;SDS011;66908;50.988;4.780;2023-02-18T07:51:03;8.57;;;4.18;;
55835;SDS011;66908;50.988;4.780;2023-02-18T07:53:30;15.48;;;3.95;;
55835;SDS011;66908;50.988;4.780;2023-02-18T07:55:59;14.02;;;4.07;;
55835;SDS011;66908;50.988;4.780;2023-02-18T07:58:26;9.27;;;4.15;;
55835;SDS011;66908;50.988;4.780;2023-02-18T08:00:53;13.55;;;3.85;;
55835;SDS011;66908;50.988;4.780;2023-02-18T08:03:20;15.88;;;3.85;;
55835;SDS011;66908;50.988;4.780;2023-02-18T08:08:14;8.27;;;3.72;;
55835;SDS011;66908;50.988;4.780;2023-02-18T08:10:44;14.60;;;3.58;;
55835;SDS011;66908;50.988;4.780;2023-02-18T08:13:11;13.70;;;3.80;;
55835;SDS011;66908;50.988;4.780;2023-02-18T08:15:37;11.25;;;4.53;;
55835;SDS011;66908;50.988;4.780;2023-02-18T08:18:03;12.03;;;3.00;;
55835;SDS011;66908;50.988;4.780;2023-02-18T08:20:30;9.48;;;4.00;;
55835;SDS011;66908;50.988;4.780;2023-02-18T08:22:56;12.60;;;4.07;;
55835;SDS011;66908;50.988;4.780;2023-02-18T08:25:22;10.63;;;3.42;;
55835;SDS011;66908;50.988;4.780;2023-02-18T08:27:47;10.93;;;3.50;;
55835;SDS011;66908;50.988;4.780;2023-02-18T08:30:13;13.05;;;4.10;;
55835;SDS011;66908;50.988;4.780;2023-02-18T08:32:39;12.73;;;4.20;;
55835;SDS011;66908;50.988;4.780;2023-02-18T08:35:05;9.13;;;3.17;;
55835;SDS011;66908;50.988;4.780;2023-02-18T08:37:31;8.97;;;3.73;;
55835;SDS011;66908;50.988;4.780;2023-02-18T08:39:57;9.63;;;3.25;;
55835;SDS011;66908;50.988;4.780;2023-02-18T08:42:23;8.43;;;3.00;;
55835;SDS011;66908;50.988;4.780;2023-02-18T08:44:48;11.00;;;3.78;;
55835;SDS011;66908;50.988;4.780;2023-02-18T08:47:14;13.35;;;3.25;;
55835;SDS011;66908;50.988;4.780;2023-02-18T08:49:40;11.15;;;3.90;;
55835;SDS011;66908;50.988;4.780;2023-02-18T08:52:06;6.75;;;3.47;;
55835;SDS011;66908;50.988;4.780;2023-02-18T08:54:31;8.00;;;3.10;;
55835;SDS011;66908;50.988;4.780;2023-02-18T08:56:57;8.82;;;3.13;;
55835;SDS011;66908;50.988;4.780;2023-02-18T08:59:23;7.40;;;2.83;;
55835;SDS011;66908;50.988;4.780;2023-02-18T09:01:49;10.30;;;3.60;;
55835;SDS011;66908;50.988;4.780;2023-02-18T09:04:15;5.30;;;2.72;;
55835;SDS011;66908;50.988;4.780;2023-02-18T09:06:41;13.82;;;3.50;;
55835;SDS011;66908;50.988;4.780;2023-02-18T09:09:07;6.57;;;3.78;;
55835;SDS011;66908;50.988;4.780;2023-02-18T09:11:34;6.70;;;2.90;;
55835;SDS011;66908;50.988;4.780;2023-02-18T09:14:00;10.65;;;2.97;;
55835;SDS011;66908;50.988;4.780;2023-02-18T09:16:26;11.07;;;4.03;;
55835;SDS011;66908;50.988;4.780;2023-02-18T09:18:53;8.43;;;3.00;;
55835;SDS011;66908;50.988;4.780;2023-02-18T09:21:20;7.70;;;2.70;;
55835;SDS011;66908;50.988;4.780;2023-02-18T09:23:47;7.95;;;2.80;;
55835;SDS011;66908;50.988;4.780;2023-02-18T09:26:14;8.65;;;2.70;;
55835;SDS011;66908;50.988;4.780;2023-02-18T09:28:42;7.47;;;2.92;;
55835;SDS011;66908;50.988;4.780;2023-02-18T09:31:09;3.05;;;2.10;;
55835;SDS011;66908;50.988;4.780;2023-02-18T09:33:38;5.40;;;2.47;;
55835;SDS011;66908;50.988;4.780;2023-02-18T09:36:05;4.43;;;3.00;;
55835;SDS011;66908;50.988;4.780;2023-02-18T09:38:31;10.25;;;2.47;;
55835;SDS011;66908;50.988;4.780;2023-02-18T09:40:57;7.57;;;2.33;;
55835;SDS011;66908;50.988;4.780;2023-02-18T09:43:43;7.57;;;2.53;;
55835;SDS011;66908;50.988;4.780;2023-02-18T09:46:19;7.07;;;3.08;;
55835;SDS011;66908;50.988;4.780;2023-02-18T09:48:48;7.25;;;3.25;;
55835;SDS011;66908;50.988;4.780;2023-02-18T09:51:16;7.18;;;2.58;;
55835;SDS011;66908;50.988;4.780;2023-02-18T09:53:43;4.43;;;2.08;;
55835;SDS011;66908;50.988;4.780;2023-02-18T09:56:14;3.35;;;1.70;;
55835;SDS011;66908;50.988;4.780;2023-02-18T09:58:45;8.55;;;2.67;;
55835;SDS011;66908;50.988;4.780;2023-02-18T10:01:29;3.47;;;2.20;;
55835;SDS011;66908;50.988;4.780;2023-02-18T10:04:43;12.02;;;3.05;;
55835;SDS011;66908;50.988;4.780;2023-02-18T10:06:56;10.45;;;3.08;;
55835;SDS011;66908;50.988;4.780;2023-02-18T10:11:55;5.45;;;2.92;;
55835;SDS011;66908;50.988;4.780;2023-02-18T10:14:26;8.23;;;2.38;;
55835;SDS011;66908;50.988;4.780;2023-02-18T10:16:54;2.45;;;1.85;;
55835;SDS011;66908;50.988;4.780;2023-02-18T10:19:23;4.13;;;2.33;;
55835;SDS011;66908;50.988;4.780;2023-02-18T10:21:55;7.22;;;2.55;;
55835;SDS011;66908;50.988;4.780;2023-02-18T10:26:56;4.68;;;2.45;;
55835;SDS011;66908;50.988;4.780;2023-02-18T10:29:23;8.90;;;2.50;;
55835;SDS011;66908;50.988;4.780;2023-02-18T10:32:08;9.30;;;2.75;;
55835;SDS011;66908;50.988;4.780;2023-02-18T10:34:50;6.15;;;2.90;;
55835;SDS011;66908;50.988;4.780;2023-02-18T10:52:53;9.23;;;3.08;;
55835;SDS011;66908;50.988;4.780;2023-02-18T10:55:33;8.77;;;2.85;;
55835;SDS011;66908;50.988;4.780;2023-02-18T10:58:01;10.02;;;3.25;;
55835;SDS011;66908;50.988;4.780;2023-02-18T11:00:31;6.90;;;3.25;;
55835;SDS011;66908;50.988;4.780;2023-02-18T11:03:12;8.85;;;3.38;;
55835;SDS011;66908;50.988;4.780;2023-02-18T11:05:44;5.65;;;2.58;;
55835;SDS011;66908;50.988;4.780;2023-02-18T11:08:34;13.25;;;2.58;;
55835;SDS011;66908;50.988;4.780;2023-02-18T11:11:38;5.57;;;3.25;;
55835;SDS011;66908;50.988;4.780;2023-02-18T11:14:04;6.82;;;2.70;;
55835;SDS011;66908;50.988;4.780;2023-02-18T11:16:40;8.82;;;2.55;;
55835;SDS011;66908;50.988;4.780;2023-02-18T11:22:06;8.02;;;3.63;;
55835;SDS011;66908;50.988;4.780;2023-02-18T11:24:43;8.07;;;3.08;;
55835;SDS011;66908;50.988;4.780;2023-02-18T11:27:36;7.75;;;2.55;;
55835;SDS011;66908;50.988;4.780;2023-02-18T11:32:40;6.88;;;3.05;;
55835;SDS011;66908;50.988;4.780;2023-02-18T11:35:15;7.05;;;3.20;;
55835;SDS011;66908;50.988;4.780;2023-02-18T11:37:46;10.15;;;3.03;;
55835;SDS011;66908;50.988;4.780;2023-02-18T11:43:17;10.38;;;3.20;;
55835;SDS011;66908;50.988;4.780;2023-02-18T11:45:44;7.82;;;3.08;;
55835;SDS011;66908;50.988;4.780;2023-02-18T11:48:14;22.52;;;8.80;;
55835;SDS011;66908;50.988;4.780;2023-02-18T11:50:43;10.00;;;3.55;;
55835;SDS011;66908;50.988;4.780;2023-02-18T11:55:54;9.02;;;3.03;;
55835;SDS011;66908;50.988;4.780;2023-02-18T11:58:22;6.40;;;2.80;;
55835;SDS011;66908;50.988;4.780;2023-02-18T12:00:50;10.55;;;3.42;;
55835;SDS011;66908;50.988;4.780;2023-02-18T12:06:22;5.22;;;3.15;;
55835;SDS011;66908;50.988;4.780;2023-02-18T12:08:54;11.40;;;4.00;;
55835;SDS011;66908;50.988;4.780;2023-02-18T12:11:30;13.77;;;3.53;;
55835;SDS011;66908;50.988;4.780;2023-02-18T12:14:07;6.78;;;3.08;;
55835;SDS011;66908;50.988;4.780;2023-02-18T12:22:30;12.52;;;3.55;;
55835;SDS011;66908;50.988;4.780;2023-02-18T12:27:57;7.82;;;3.30;;
55835;SDS011;66908;50.988;4.780;2023-02-18T12:36:25;10.73;;;3.72;;
55835;SDS011;66908;50.988;4.780;2023-02-18T12:42:02;9.25;;;3.33;;
55835;SDS011;66908;50.988;4.780;2023-02-18T12:45:12;8.02;;;3.38;;
55835;SDS011;66908;50.988;4.780;2023-02-18T13:13:25;9.68;;;3.80;;
55835;SDS011;66908;50.988;4.780;2023-02-18T13:15:58;8.70;;;3.92;;
55835;SDS011;66908;50.988;4.780;2023-02-18T13:18:30;7.25;;;3.75;;
55835;SDS011;66908;50.988;4.780;2023-02-18T13:21:00;12.98;;;4.20;;
55835;SDS011;66908;50.988;4.780;2023-02-18T13:23:39;9.75;;;4.05;;
55835;SDS011;66908;50.988;4.780;2023-02-18T13:26:17;11.88;;;4.38;;
55835;SDS011;66908;50.988;4.780;2023-02-18T13:28:49;13.52;;;4.30;;
55835;SDS011;66908;50.988;4.780;2023-02-18T13:39:15;6.45;;;3.90;;
55835;SDS011;66908;50.988;4.780;2023-02-18T13:41:47;7.75;;;4.07;;
55835;SDS011;66908;50.988;4.780;2023-02-18T13:46:49;11.73;;;4.15;;
55835;SDS011;66908;50.988;4.780;2023-02-18T13:49:19;15.35;;;4.05;;
55835;SDS011;66908;50.988;4.780;2023-02-18T13:51:48;8.45;;;4.82;;
55835;SDS011;66908;50.988;4.780;2023-02-18T13:54:26;11.88;;;3.85;;
55835;SDS011;66908;50.988;4.780;2023-02-18T13:57:14;9.25;;;4.60;;
55835;SDS011;66908;50.988;4.780;2023-02-18T13:59:50;12.25;;;4.63;;
55835;SDS011;66908;50.988;4.780;2023-02-18T14:02:30;6.03;;;3.70;;
55835;SDS011;66908;50.988;4.780;2023-02-18T14:17:43;12.02;;;4.60;;
55835;SDS011;66908;50.988;4.780;2023-02-18T14:23:07;10.50;;;4.20;;
55835;SDS011;66908;50.988;4.780;2023-02-18T14:25:40;7.88;;;4.18;;
55835;SDS011;66908;50.988;4.780;2023-02-18T14:31:29;7.95;;;3.60;;
55835;SDS011;66908;50.988;4.780;2023-02-18T14:37:09;7.22;;;3.83;;
55835;SDS011;66908;50.988;4.780;2023-02-18T14:46:12;7.85;;;3.70;;
55835;SDS011;66908;50.988;4.780;2023-02-18T14:51:42;6.82;;;4.18;;
55835;SDS011;66908;50.988;4.780;2023-02-18T14:54:16;7.43;;;3.72;;
55835;SDS011;66908;50.988;4.780;2023-02-18T14:59:19;13.18;;;4.13;;
55835;SDS011;66908;50.988;4.780;2023-02-18T15:01:46;9.35;;;3.67;;
55835;SDS011;66908;50.988;4.780;2023-02-18T15:04:13;9.57;;;4.57;;
55835;SDS011;66908;50.988;4.780;2023-02-18T15:06:40;11.02;;;3.70;;
55835;SDS011;66908;50.988;4.780;2023-02-18T15:09:19;5.35;;;3.60;;
55835;SDS011;66908;50.988;4.780;2023-02-18T15:11:47;4.78;;;3.47;;
55835;SDS011;66908;50.988;4.780;2023-02-18T15:14:26;7.53;;;3.65;;
55835;SDS011;66908;50.988;4.780;2023-02-18T15:16:55;7.60;;;3.90;;
55835;SDS011;66908;50.988;4.780;2023-02-18T15:19:26;12.73;;;3.33;;
55835;SDS011;66908;50.988;4.780;2023-02-18T15:21:58;7.18;;;3.90;;
55835;SDS011;66908;50.988;4.780;2023-02-18T15:26:52;9.70;;;4.25;;
55835;SDS011;66908;50.988;4.780;2023-02-18T15:29:27;9.07;;;4.10;;
55835;SDS011;66908;50.988;4.780;2023-02-18T15:31:56;8.63;;;4.28;;
55835;SDS011;66908;50.988;4.780;2023-02-18T15:36:54;8.25;;;4.30;;
55835;SDS011;66908;50.988;4.780;2023-02-18T15:39:21;5.93;;;4.63;;
55835;SDS011;66908;50.988;4.780;2023-02-18T15:41:51;9.38;;;4.72;;
55835;SDS011;66908;50.988;4.780;2023-02-18T15:44:19;8.68;;;4.20;;
55835;SDS011;66908;50.988;4.780;2023-02-18T15:46:51;7.65;;;4.45;;
55835;SDS011;66908;50.988;4.780;2023-02-18T15:49:18;8.70;;;4.22;;
55835;SDS011;66908;50.988;4.780;2023-02-18T15:51:46;8.90;;;4.00;;
55835;SDS011;66908;50.988;4.780;2023-02-18T15:54:14;9.27;;;3.72;;
55835;SDS011;66908;50.988;4.780;2023-02-18T15:56:43;9.88;;;4.45;;
55835;SDS011;66908;50.988;4.780;2023-02-18T15:59:23;9.68;;;4.53;;
55835;SDS011;66908;50.988;4.780;2023-02-18T16:02:36;14.57;;;4.65;;
55835;SDS011;66908;50.988;4.780;2023-02-18T16:04:44;11.23;;;4.43;;
55835;SDS011;66908;50.988;4.780;2023-02-18T16:09:48;9.10;;;4.38;;
55835;SDS011;66908;50.988;4.780;2023-02-18T16:12:21;8.93;;;4.13;;
55835;SDS011;66908;50.988;4.780;2023-02-18T16:14:55;7.78;;;4.40;;
55835;SDS011;66908;50.988;4.780;2023-02-18T16:17:23;7.22;;;4.35;;
55835;SDS011;66908;50.988;4.780;2023-02-18T16:22:44;9.32;;;4.22;;
55835;SDS011;66908;50.988;4.780;2023-02-18T16:25:20;13.38;;;4.47;;
55835;SDS011;66908;50.988;4.780;2023-02-18T16:27:53;12.63;;;4.53;;
55835;SDS011;66908;50.988;4.780;2023-02-18T16:30:30;5.05;;;4.03;;
55835;SDS011;66908;50.988;4.780;2023-02-18T16:32:57;9.00;;;4.50;;
55835;SDS011;66908;50.988;4.780;2023-02-18T16:35:26;7.20;;;4.78;;
55835;SDS011;66908;50.988;4.780;2023-02-18T16:37:53;9.27;;;4.55;;
55835;SDS011;66908;50.988;4.780;2023-02-18T16:42:50;7.72;;;4.75;;
55835;SDS011;66908;50.988;4.780;2023-02-18T16:45:17;6.30;;;4.57;;
55835;SDS011;66908;50.988;4.780;2023-02-18T16:47:45;8.13;;;4.40;;
55835;SDS011;66908;50.988;4.780;2023-02-18T16:50:19;5.55;;;4.55;;
55835;SDS011;66908;50.988;4.780;2023-02-18T16:52:45;8.32;;;4.22;;
55835;SDS011;66908;50.988;4.780;2023-02-18T16:55:22;8.25;;;4.88;;
55835;SDS011;66908;50.988;4.780;2023-02-18T16:57:50;9.30;;;4.43;;
55835;SDS011;66908;50.988;4.780;2023-02-18T17:00:16;6.93;;;4.30;;
55835;SDS011;66908;50.988;4.780;2023-02-18T17:02:46;7.95;;;4.68;;
55835;SDS011;66908;50.988;4.780;2023-02-18T17:05:25;10.38;;;4.80;;
55835;SDS011;66908;50.988;4.780;2023-02-18T17:07:54;6.25;;;4.65;;
55835;SDS011;66908;50.988;4.780;2023-02-18T17:10:23;8.52;;;4.82;;
55835;SDS011;66908;50.988;4.780;2023-02-18T17:12:49;9.75;;;5.00;;
55835;SDS011;66908;50.988;4.780;2023-02-18T17:15:22;9.90;;;5.45;;
55835;SDS011;66908;50.988;4.780;2023-02-18T17:17:57;10.40;;;5.05;;
55835;SDS011;66908;50.988;4.780;2023-02-18T17:20:24;10.27;;;4.78;;
55835;SDS011;66908;50.988;4.780;2023-02-18T17:22:51;7.93;;;5.43;;
55835;SDS011;66908;50.988;4.780;2023-02-18T17:25:21;8.27;;;5.38;;
55835;SDS011;66908;50.988;4.780;2023-02-18T17:27:52;7.18;;;4.65;;
55835;SDS011;66908;50.988;4.780;2023-02-18T17:30:18;8.95;;;5.35;;
55835;SDS011;66908;50.988;4.780;2023-02-18T17:32:44;6.07;;;5.10;;
55835;SDS011;66908;50.988;4.780;2023-02-18T17:35:14;8.32;;;4.95;;
55835;SDS011;66908;50.988;4.780;2023-02-18T17:37:42;7.97;;;4.95;;
55835;SDS011;66908;50.988;4.780;2023-02-18T17:40:12;49.47;;;23.05;;
55835;SDS011;66908;50.988;4.780;2023-02-18T17:42:45;9.15;;;5.15;;
55835;SDS011;66908;50.988;4.780;2023-02-18T17:47:58;7.20;;;5.00;;
55835;SDS011;66908;50.988;4.780;2023-02-18T17:50:26;9.57;;;5.00;;
55835;SDS011;66908;50.988;4.780;2023-02-18T17:52:53;5.95;;;5.30;;
55835;SDS011;66908;50.988;4.780;2023-02-18T17:55:29;8.75;;;5.95;;
55835;SDS011;66908;50.988;4.780;2023-02-18T17:57:57;6.70;;;5.28;;
55835;SDS011;66908;50.988;4.780;2023-02-18T18:00:25;8.23;;;6.10;;